Poncha Springs, Colorado
Current Conditions -  °F | °C
As of 1:15 AM on Monday 26 Jan 2015 (Local Time) from KANK Reporting Station
Clear Clear  
Wind Chill: 26°   Ceiling: Unl
Heat Index: 32°   Visibility: 10mi
Dew Point: 20°   Wind: 6mph
Humidity: 62%   Direction: 250°WSW
Pressure: 30.46"   Gusts: NA
Location:  38.51°N, 106.08°W
Report Text: KANK 260815Z AUTO 25005KT 10SM CLR 00/M06 A3046 RMK AO1 T00001065
Loading
Personal Weather Stations






























Interactive Weather Map New forecast layout! Learn more

10-Day Weather Forecast

Advertisements
Track Severe Weather on mobile